sensor_id;sensor_type;location;lat;lon;timestamp;P1;durP1;ratioP1;P2;durP2;ratioP2
58196;SDS011;43999;51.660;5.616;2023-12-29T00:02:13;111.88;;;82.18;;
58196;SDS011;43999;51.660;5.616;2023-12-29T00:05:02;115.55;;;84.28;;
58196;SDS011;43999;51.660;5.616;2023-12-29T00:07:53;107.90;;;81.47;;
58196;SDS011;43999;51.660;5.616;2023-12-29T00:10:41;114.88;;;83.07;;
58196;SDS011;43999;51.660;5.616;2023-12-29T00:13:30;112.68;;;81.72;;
58196;SDS011;43999;51.660;5.616;2023-12-29T00:16:27;118.35;;;82.93;;
58196;SDS011;43999;51.660;5.616;2023-12-29T00:19:17;108.72;;;82.53;;
58196;SDS011;43999;51.660;5.616;2023-12-29T00:22:05;118.78;;;84.10;;
58196;SDS011;43999;51.660;5.616;2023-12-29T00:25:02;119.90;;;84.95;;
58196;SDS011;43999;51.660;5.616;2023-12-29T00:27:52;109.10;;;81.53;;
58196;SDS011;43999;51.660;5.616;2023-12-29T00:30:42;102.57;;;78.28;;
58196;SDS011;43999;51.660;5.616;2023-12-29T00:33:46;117.40;;;84.43;;
58196;SDS011;43999;51.660;5.616;2023-12-29T00:36:39;108.20;;;80.90;;
58196;SDS011;43999;51.660;5.616;2023-12-29T00:39:30;116.40;;;84.22;;
58196;SDS011;43999;51.660;5.616;2023-12-29T00:42:27;115.72;;;83.30;;
58196;SDS011;43999;51.660;5.616;2023-12-29T00:45:15;127.63;;;89.10;;
58196;SDS011;43999;51.660;5.616;2023-12-29T00:48:03;120.30;;;86.85;;
58196;SDS011;43999;51.660;5.616;2023-12-29T00:50:52;124.43;;;90.13;;
58196;SDS011;43999;51.660;5.616;2023-12-29T00:53:48;127.75;;;88.68;;
58196;SDS011;43999;51.660;5.616;2023-12-29T00:56:35;121.35;;;86.85;;
58196;SDS011;43999;51.660;5.616;2023-12-29T00:59:23;118.32;;;86.65;;
58196;SDS011;43999;51.660;5.616;2023-12-29T01:02:13;111.88;;;83.38;;
58196;SDS011;43999;51.660;5.616;2023-12-29T01:05:02;119.75;;;86.00;;
58196;SDS011;43999;51.660;5.616;2023-12-29T01:07:51;142.90;;;92.63;;
58196;SDS011;43999;51.660;5.616;2023-12-29T01:10:40;129.85;;;92.82;;
58196;SDS011;43999;51.660;5.616;2023-12-29T01:13:29;129.98;;;93.78;;
58196;SDS011;43999;51.660;5.616;2023-12-29T01:16:17;136.52;;;92.68;;
58196;SDS011;43999;51.660;5.616;2023-12-29T01:19:05;135.57;;;91.47;;
58196;SDS011;43999;51.660;5.616;2023-12-29T01:21:53;136.48;;;92.22;;
58196;SDS011;43999;51.660;5.616;2023-12-29T01:24:42;137.50;;;92.18;;
58196;SDS011;43999;51.660;5.616;2023-12-29T01:27:33;141.82;;;95.30;;
58196;SDS011;43999;51.660;5.616;2023-12-29T01:30:21;142.40;;;97.85;;
58196;SDS011;43999;51.660;5.616;2023-12-29T01:33:11;147.38;;;97.30;;
58196;SDS011;43999;51.660;5.616;2023-12-29T01:35:59;155.60;;;100.63;;
58196;SDS011;43999;51.660;5.616;2023-12-29T01:39:00;167.10;;;103.90;;
58196;SDS011;43999;51.660;5.616;2023-12-29T01:41:52;160.38;;;101.32;;
58196;SDS011;43999;51.660;5.616;2023-12-29T01:44:43;155.98;;;99.63;;
58196;SDS011;43999;51.660;5.616;2023-12-29T01:47:31;173.10;;;105.47;;
58196;SDS011;43999;51.660;5.616;2023-12-29T01:50:23;166.77;;;103.35;;
58196;SDS011;43999;51.660;5.616;2023-12-29T01:53:12;173.20;;;106.65;;
58196;SDS011;43999;51.660;5.616;2023-12-29T01:56:00;174.63;;;105.53;;
58196;SDS011;43999;51.660;5.616;2023-12-29T01:58:50;151.38;;;99.45;;
58196;SDS011;43999;51.660;5.616;2023-12-29T02:01:54;153.43;;;99.93;;
58196;SDS011;43999;51.660;5.616;2023-12-29T02:04:43;149.82;;;98.88;;
58196;SDS011;43999;51.660;5.616;2023-12-29T02:07:33;147.63;;;97.00;;
58196;SDS011;43999;51.660;5.616;2023-12-29T02:10:22;141.30;;;95.25;;
58196;SDS011;43999;51.660;5.616;2023-12-29T02:13:12;147.45;;;98.22;;
58196;SDS011;43999;51.660;5.616;2023-12-29T02:16:10;148.48;;;97.97;;
58196;SDS011;43999;51.660;5.616;2023-12-29T02:22:23;161.50;;;103.63;;
58196;SDS011;43999;51.660;5.616;2023-12-29T02:25:15;153.32;;;99.53;;
58196;SDS011;43999;51.660;5.616;2023-12-29T02:28:19;150.15;;;98.97;;
58196;SDS011;43999;51.660;5.616;2023-12-29T02:31:16;150.32;;;97.63;;
58196;SDS011;43999;51.660;5.616;2023-12-29T02:34:08;141.70;;;94.22;;
58196;SDS011;43999;51.660;5.616;2023-12-29T02:37:02;150.70;;;98.20;;
58196;SDS011;43999;51.660;5.616;2023-12-29T02:39:52;144.10;;;94.82;;
58196;SDS011;43999;51.660;5.616;2023-12-29T02:42:45;156.95;;;97.60;;
58196;SDS011;43999;51.660;5.616;2023-12-29T02:45:36;139.60;;;92.72;;
58196;SDS011;43999;51.660;5.616;2023-12-29T02:48:24;155.63;;;96.78;;
58196;SDS011;43999;51.660;5.616;2023-12-29T02:51:13;143.43;;;93.97;;
58196;SDS011;43999;51.660;5.616;2023-12-29T02:54:04;146.30;;;97.15;;
58196;SDS011;43999;51.660;5.616;2023-12-29T02:56:53;153.88;;;96.93;;
58196;SDS011;43999;51.660;5.616;2023-12-29T02:59:56;148.68;;;96.88;;
58196;SDS011;43999;51.660;5.616;2023-12-29T03:02:51;147.13;;;96.40;;
58196;SDS011;43999;51.660;5.616;2023-12-29T03:05:45;145.15;;;95.57;;
58196;SDS011;43999;51.660;5.616;2023-12-29T03:08:48;145.85;;;95.47;;
58196;SDS011;43999;51.660;5.616;2023-12-29T03:11:39;150.77;;;97.63;;
58196;SDS011;43999;51.660;5.616;2023-12-29T03:14:32;148.00;;;97.07;;
58196;SDS011;43999;51.660;5.616;2023-12-29T03:17:27;143.23;;;95.32;;
58196;SDS011;43999;51.660;5.616;2023-12-29T03:20:15;142.10;;;95.97;;
58196;SDS011;43999;51.660;5.616;2023-12-29T03:23:19;142.80;;;95.38;;
58196;SDS011;43999;51.660;5.616;2023-12-29T03:26:08;148.25;;;98.10;;
58196;SDS011;43999;51.660;5.616;2023-12-29T03:29:00;149.15;;;97.28;;
58196;SDS011;43999;51.660;5.616;2023-12-29T03:31:49;142.88;;;95.80;;
58196;SDS011;43999;51.660;5.616;2023-12-29T03:34:40;142.90;;;94.85;;
58196;SDS011;43999;51.660;5.616;2023-12-29T03:37:33;168.70;;;101.82;;
58196;SDS011;43999;51.660;5.616;2023-12-29T03:40:40;157.32;;;99.53;;
58196;SDS011;43999;51.660;5.616;2023-12-29T03:43:31;154.40;;;98.35;;
58196;SDS011;43999;51.660;5.616;2023-12-29T03:46:29;156.73;;;100.07;;
58196;SDS011;43999;51.660;5.616;2023-12-29T03:49:22;145.90;;;96.22;;
58196;SDS011;43999;51.660;5.616;2023-12-29T03:52:14;151.95;;;96.13;;
58196;SDS011;43999;51.660;5.616;2023-12-29T03:55:04;152.98;;;98.38;;
58196;SDS011;43999;51.660;5.616;2023-12-29T03:57:56;155.88;;;98.10;;
58196;SDS011;43999;51.660;5.616;2023-12-29T04:00:46;159.15;;;99.30;;
58196;SDS011;43999;51.660;5.616;2023-12-29T04:03:38;159.82;;;100.00;;
58196;SDS011;43999;51.660;5.616;2023-12-29T04:06:32;170.10;;;104.00;;
58196;SDS011;43999;51.660;5.616;2023-12-29T04:09:29;173.02;;;105.80;;
58196;SDS011;43999;51.660;5.616;2023-12-29T04:12:20;157.88;;;100.75;;
58196;SDS011;43999;51.660;5.616;2023-12-29T04:15:19;164.50;;;101.50;;
58196;SDS011;43999;51.660;5.616;2023-12-29T04:18:14;167.50;;;101.93;;
58196;SDS011;43999;51.660;5.616;2023-12-29T04:21:03;177.50;;;105.20;;
58196;SDS011;43999;51.660;5.616;2023-12-29T04:23:55;158.93;;;99.10;;
58196;SDS011;43999;51.660;5.616;2023-12-29T04:26:46;166.10;;;102.25;;
58196;SDS011;43999;51.660;5.616;2023-12-29T04:29:39;171.88;;;102.90;;
58196;SDS011;43999;51.660;5.616;2023-12-29T04:32:35;167.75;;;104.35;;
58196;SDS011;43999;51.660;5.616;2023-12-29T04:35:43;174.35;;;104.68;;
58196;SDS011;43999;51.660;5.616;2023-12-29T04:38:35;171.45;;;103.78;;
58196;SDS011;43999;51.660;5.616;2023-12-29T04:41:25;169.02;;;103.90;;
58196;SDS011;43999;51.660;5.616;2023-12-29T04:44:25;167.43;;;103.57;;
58196;SDS011;43999;51.660;5.616;2023-12-29T04:47:13;174.93;;;106.10;;
58196;SDS011;43999;51.660;5.616;2023-12-29T04:50:02;165.30;;;103.88;;
58196;SDS011;43999;51.660;5.616;2023-12-29T04:52:57;178.25;;;106.85;;
58196;SDS011;43999;51.660;5.616;2023-12-29T04:55:52;178.77;;;109.50;;
58196;SDS011;43999;51.660;5.616;2023-12-29T04:58:55;174.05;;;105.05;;
58196;SDS011;43999;51.660;5.616;2023-12-29T05:01:43;173.25;;;105.90;;
58196;SDS011;43999;51.660;5.616;2023-12-29T05:04:37;178.25;;;107.15;;
58196;SDS011;43999;51.660;5.616;2023-12-29T05:07:28;177.07;;;105.82;;
58196;SDS011;43999;51.660;5.616;2023-12-29T05:10:17;174.90;;;106.32;;
58196;SDS011;43999;51.660;5.616;2023-12-29T05:13:10;168.40;;;102.75;;
58196;SDS011;43999;51.660;5.616;2023-12-29T05:16:02;156.93;;;100.20;;
58196;SDS011;43999;51.660;5.616;2023-12-29T05:18:53;155.38;;;100.72;;
58196;SDS011;43999;51.660;5.616;2023-12-29T05:21:48;161.38;;;99.57;;
58196;SDS011;43999;51.660;5.616;2023-12-29T05:24:49;154.15;;;99.18;;
58196;SDS011;43999;51.660;5.616;2023-12-29T05:27:52;165.30;;;102.68;;
58196;SDS011;43999;51.660;5.616;2023-12-29T05:30:44;161.18;;;100.40;;
58196;SDS011;43999;51.660;5.616;2023-12-29T05:36:42;160.85;;;101.60;;
58196;SDS011;43999;51.660;5.616;2023-12-29T05:39:51;156.65;;;99.47;;
58196;SDS011;43999;51.660;5.616;2023-12-29T05:42:39;156.65;;;97.47;;
58196;SDS011;43999;51.660;5.616;2023-12-29T05:45:27;158.60;;;99.90;;
58196;SDS011;43999;51.660;5.616;2023-12-29T05:48:18;172.98;;;103.85;;
58196;SDS011;43999;51.660;5.616;2023-12-29T05:51:12;155.98;;;99.40;;
58196;SDS011;43999;51.660;5.616;2023-12-29T05:54:07;164.70;;;104.50;;
58196;SDS011;43999;51.660;5.616;2023-12-29T05:56:54;160.40;;;99.88;;
58196;SDS011;43999;51.660;5.616;2023-12-29T05:59:42;167.52;;;104.03;;
58196;SDS011;43999;51.660;5.616;2023-12-29T06:02:34;158.48;;;100.05;;
58196;SDS011;43999;51.660;5.616;2023-12-29T06:05:28;161.57;;;101.78;;
58196;SDS011;43999;51.660;5.616;2023-12-29T06:08:24;162.18;;;102.07;;
58196;SDS011;43999;51.660;5.616;2023-12-29T06:11:19;171.50;;;102.57;;
58196;SDS011;43999;51.660;5.616;2023-12-29T06:14:09;163.15;;;102.43;;
58196;SDS011;43999;51.660;5.616;2023-12-29T06:17:02;167.23;;;102.75;;
58196;SDS011;43999;51.660;5.616;2023-12-29T06:19:51;168.02;;;103.68;;
58196;SDS011;43999;51.660;5.616;2023-12-29T06:22:43;165.38;;;100.72;;
58196;SDS011;43999;51.660;5.616;2023-12-29T06:25:44;171.13;;;104.18;;
58196;SDS011;43999;51.660;5.616;2023-12-29T06:28:49;173.63;;;103.35;;
58196;SDS011;43999;51.660;5.616;2023-12-29T06:31:40;179.10;;;106.82;;
58196;SDS011;43999;51.660;5.616;2023-12-29T06:34:29;174.80;;;106.28;;
58196;SDS011;43999;51.660;5.616;2023-12-29T06:37:17;169.50;;;104.78;;
58196;SDS011;43999;51.660;5.616;2023-12-29T06:40:06;170.93;;;103.55;;
58196;SDS011;43999;51.660;5.616;2023-12-29T06:42:56;180.57;;;109.47;;
58196;SDS011;43999;51.660;5.616;2023-12-29T06:45:46;144.73;;;96.07;;
58196;SDS011;43999;51.660;5.616;2023-12-29T06:48:34;144.30;;;95.78;;
58196;SDS011;43999;51.660;5.616;2023-12-29T06:51:26;138.88;;;94.25;;
58196;SDS011;43999;51.660;5.616;2023-12-29T06:54:16;142.13;;;95.50;;
58196;SDS011;43999;51.660;5.616;2023-12-29T06:57:04;138.05;;;93.30;;
58196;SDS011;43999;51.660;5.616;2023-12-29T06:59:53;146.57;;;96.15;;
58196;SDS011;43999;51.660;5.616;2023-12-29T07:02:41;149.23;;;97.35;;
58196;SDS011;43999;51.660;5.616;2023-12-29T07:05:30;142.65;;;94.20;;
58196;SDS011;43999;51.660;5.616;2023-12-29T07:08:28;151.40;;;98.63;;
58196;SDS011;43999;51.660;5.616;2023-12-29T07:11:17;139.65;;;94.38;;
58196;SDS011;43999;51.660;5.616;2023-12-29T07:14:05;158.65;;;99.80;;
58196;SDS011;43999;51.660;5.616;2023-12-29T07:16:53;150.02;;;98.38;;
58196;SDS011;43999;51.660;5.616;2023-12-29T07:19:43;153.38;;;98.90;;
58196;SDS011;43999;51.660;5.616;2023-12-29T07:22:33;145.80;;;95.97;;
58196;SDS011;43999;51.660;5.616;2023-12-29T07:25:22;154.10;;;99.40;;
58196;SDS011;43999;51.660;5.616;2023-12-29T07:28:16;143.43;;;94.22;;
58196;SDS011;43999;51.660;5.616;2023-12-29T07:31:06;147.25;;;95.35;;
58196;SDS011;43999;51.660;5.616;2023-12-29T07:33:58;149.35;;;95.55;;
58196;SDS011;43999;51.660;5.616;2023-12-29T07:36:48;150.18;;;97.07;;
58196;SDS011;43999;51.660;5.616;2023-12-29T07:39:37;140.35;;;94.20;;
58196;SDS011;43999;51.660;5.616;2023-12-29T07:42:27;152.85;;;97.57;;
58196;SDS011;43999;51.660;5.616;2023-12-29T07:45:16;145.60;;;95.85;;
58196;SDS011;43999;51.660;5.616;2023-12-29T07:48:04;148.30;;;96.45;;
58196;SDS011;43999;51.660;5.616;2023-12-29T07:50:59;151.18;;;97.32;;
58196;SDS011;43999;51.660;5.616;2023-12-29T07:53:55;146.68;;;96.70;;
58196;SDS011;43999;51.660;5.616;2023-12-29T07:56:44;150.30;;;97.38;;
58196;SDS011;43999;51.660;5.616;2023-12-29T07:59:32;152.32;;;97.32;;
58196;SDS011;43999;51.660;5.616;2023-12-29T08:02:27;156.25;;;99.22;;
58196;SDS011;43999;51.660;5.616;2023-12-29T08:05:17;152.30;;;97.85;;
58196;SDS011;43999;51.660;5.616;2023-12-29T08:08:12;155.57;;;98.20;;
58196;SDS011;43999;51.660;5.616;2023-12-29T08:11:04;152.15;;;96.72;;
58196;SDS011;43999;51.660;5.616;2023-12-29T08:13:55;154.02;;;98.57;;
58196;SDS011;43999;51.660;5.616;2023-12-29T08:17:04;151.15;;;97.18;;
58196;SDS011;43999;51.660;5.616;2023-12-29T08:19:56;157.13;;;98.47;;
58196;SDS011;43999;51.660;5.616;2023-12-29T08:22:44;151.73;;;98.18;;
58196;SDS011;43999;51.660;5.616;2023-12-29T08:25:34;154.57;;;100.13;;
58196;SDS011;43999;51.660;5.616;2023-12-29T08:28:28;155.75;;;96.80;;
58196;SDS011;43999;51.660;5.616;2023-12-29T08:31:18;156.48;;;97.95;;
58196;SDS011;43999;51.660;5.616;2023-12-29T08:34:32;157.75;;;99.32;;
58196;SDS011;43999;51.660;5.616;2023-12-29T08:37:28;151.13;;;97.43;;
58196;SDS011;43999;51.660;5.616;2023-12-29T08:40:22;157.93;;;99.43;;
58196;SDS011;43999;51.660;5.616;2023-12-29T08:43:17;153.35;;;96.50;;
58196;SDS011;43999;51.660;5.616;2023-12-29T08:46:08;156.52;;;98.55;;
58196;SDS011;43999;51.660;5.616;2023-12-29T08:48:56;151.38;;;97.13;;
58196;SDS011;43999;51.660;5.616;2023-12-29T08:51:54;161.98;;;101.13;;
58196;SDS011;43999;51.660;5.616;2023-12-29T08:54:45;162.48;;;100.72;;
58196;SDS011;43999;51.660;5.616;2023-12-29T08:57:40;166.52;;;101.75;;
58196;SDS011;43999;51.660;5.616;2023-12-29T09:00:28;158.20;;;100.65;;
58196;SDS011;43999;51.660;5.616;2023-12-29T09:03:34;166.95;;;103.35;;
58196;SDS011;43999;51.660;5.616;2023-12-29T09:06:38;165.25;;;100.85;;
58196;SDS011;43999;51.660;5.616;2023-12-29T09:10:06;168.55;;;102.25;;
58196;SDS011;43999;51.660;5.616;2023-12-29T09:13:05;170.15;;;102.90;;
58196;SDS011;43999;51.660;5.616;2023-12-29T09:15:55;164.90;;;101.60;;
58196;SDS011;43999;51.660;5.616;2023-12-29T09:18:45;165.40;;;101.97;;
58196;SDS011;43999;51.660;5.616;2023-12-29T09:21:43;175.88;;;102.80;;
58196;SDS011;43999;51.660;5.616;2023-12-29T09:24:33;177.57;;;104.78;;
58196;SDS011;43999;51.660;5.616;2023-12-29T09:27:24;170.45;;;102.30;;
58196;SDS011;43999;51.660;5.616;2023-12-29T09:30:12;140.57;;;93.75;;
58196;SDS011;43999;51.660;5.616;2023-12-29T09:33:08;144.32;;;94.53;;
58196;SDS011;43999;51.660;5.616;2023-12-29T09:36:06;145.65;;;94.25;;
58196;SDS011;43999;51.660;5.616;2023-12-29T09:38:56;139.98;;;93.50;;
58196;SDS011;43999;51.660;5.616;2023-12-29T09:42:00;144.10;;;95.57;;
58196;SDS011;43999;51.660;5.616;2023-12-29T09:45:06;143.90;;;94.15;;
58196;SDS011;43999;51.660;5.616;2023-12-29T09:48:13;147.60;;;95.00;;
58196;SDS011;43999;51.660;5.616;2023-12-29T09:51:08;143.93;;;95.05;;
58196;SDS011;43999;51.660;5.616;2023-12-29T09:54:08;139.13;;;91.85;;
58196;SDS011;43999;51.660;5.616;2023-12-29T09:57:30;144.98;;;94.70;;
58196;SDS011;43999;51.660;5.616;2023-12-29T10:00:22;140.80;;;93.88;;
58196;SDS011;43999;51.660;5.616;2023-12-29T10:03:26;142.85;;;93.07;;
58196;SDS011;43999;51.660;5.616;2023-12-29T10:06:24;138.65;;;92.70;;
58196;SDS011;43999;51.660;5.616;2023-12-29T10:09:27;141.73;;;92.85;;
58196;SDS011;43999;51.660;5.616;2023-12-29T10:12:40;142.35;;;95.40;;
58196;SDS011;43999;51.660;5.616;2023-12-29T10:19:21;141.38;;;92.50;;
58196;SDS011;43999;51.660;5.616;2023-12-29T10:22:26;145.68;;;96.32;;
58196;SDS011;43999;51.660;5.616;2023-12-29T10:25:42;147.70;;;94.75;;
58196;SDS011;43999;51.660;5.616;2023-12-29T10:28:49;144.98;;;95.10;;
58196;SDS011;43999;51.660;5.616;2023-12-29T10:32:09;144.13;;;94.47;;
58196;SDS011;43999;51.660;5.616;2023-12-29T10:35:19;147.15;;;95.80;;
58196;SDS011;43999;51.660;5.616;2023-12-29T10:38:20;141.75;;;94.05;;
58196;SDS011;43999;51.660;5.616;2023-12-29T10:41:34;140.75;;;94.05;;
58196;SDS011;43999;51.660;5.616;2023-12-29T10:44:23;139.05;;;93.97;;
58196;SDS011;43999;51.660;5.616;2023-12-29T10:47:27;145.68;;;95.18;;
58196;SDS011;43999;51.660;5.616;2023-12-29T10:50:31;151.68;;;97.55;;
58196;SDS011;43999;51.660;5.616;2023-12-29T10:54:03;148.02;;;95.40;;
58196;SDS011;43999;51.660;5.616;2023-12-29T10:57:18;147.50;;;94.78;;
58196;SDS011;43999;51.660;5.616;2023-12-29T11:00:09;155.93;;;97.97;;
58196;SDS011;43999;51.660;5.616;2023-12-29T11:03:04;159.93;;;97.97;;
58196;SDS011;43999;51.660;5.616;2023-12-29T11:06:22;155.73;;;98.68;;
58196;SDS011;43999;51.660;5.616;2023-12-29T11:09:30;154.70;;;99.10;;
58196;SDS011;43999;51.660;5.616;2023-12-29T11:12:37;158.27;;;100.07;;
58196;SDS011;43999;51.660;5.616;2023-12-29T11:15:44;150.45;;;97.07;;
58196;SDS011;43999;51.660;5.616;2023-12-29T11:18:46;158.73;;;99.22;;
58196;SDS011;43999;51.660;5.616;2023-12-29T11:21:58;157.95;;;99.40;;
58196;SDS011;43999;51.660;5.616;2023-12-29T11:24:48;142.73;;;94.70;;
58196;SDS011;43999;51.660;5.616;2023-12-29T11:27:51;151.20;;;97.25;;
58196;SDS011;43999;51.660;5.616;2023-12-29T11:30:53;143.80;;;95.47;;
58196;SDS011;43999;51.660;5.616;2023-12-29T11:34:04;157.38;;;98.70;;
58196;SDS011;43999;51.660;5.616;2023-12-29T11:37:11;150.48;;;96.97;;
58196;SDS011;43999;51.660;5.616;2023-12-29T11:40:17;156.18;;;98.45;;
58196;SDS011;43999;51.660;5.616;2023-12-29T11:43:22;152.40;;;97.50;;
58196;SDS011;43999;51.660;5.616;2023-12-29T11:46:33;154.07;;;98.90;;
58196;SDS011;43999;51.660;5.616;2023-12-29T11:52:49;154.45;;;98.13;;
58196;SDS011;43999;51.660;5.616;2023-12-29T11:55:50;124.13;;;86.78;;
58196;SDS011;43999;51.660;5.616;2023-12-29T11:59:18;134.17;;;91.57;;
58196;SDS011;43999;51.660;5.616;2023-12-29T12:02:07;136.13;;;93.10;;
58196;SDS011;43999;51.660;5.616;2023-12-29T12:05:44;132.35;;;89.38;;
58196;SDS011;43999;51.660;5.616;2023-12-29T12:08:39;136.25;;;92.47;;
58196;SDS011;43999;51.660;5.616;2023-12-29T12:17:48;132.00;;;90.97;;
58196;SDS011;43999;51.660;5.616;2023-12-29T12:20:39;126.60;;;88.32;;
58196;SDS011;43999;51.660;5.616;2023-12-29T12:23:43;124.22;;;89.00;;
58196;SDS011;43999;51.660;5.616;2023-12-29T12:26:42;127.30;;;86.72;;
58196;SDS011;43999;51.660;5.616;2023-12-29T12:29:47;127.57;;;88.85;;
58196;SDS011;43999;51.660;5.616;2023-12-29T12:32:58;128.68;;;90.60;;
58196;SDS011;43999;51.660;5.616;2023-12-29T12:36:12;131.70;;;91.20;;
58196;SDS011;43999;51.660;5.616;2023-12-29T12:39:00;127.53;;;87.13;;
58196;SDS011;43999;51.660;5.616;2023-12-29T12:42:09;125.60;;;87.78;;
58196;SDS011;43999;51.660;5.616;2023-12-29T12:45:17;129.93;;;89.55;;
58196;SDS011;43999;51.660;5.616;2023-12-29T12:48:36;134.80;;;90.25;;
58196;SDS011;43999;51.660;5.616;2023-12-29T12:51:33;137.07;;;91.75;;
58196;SDS011;43999;51.660;5.616;2023-12-29T12:54:39;134.90;;;91.72;;
58196;SDS011;43999;51.660;5.616;2023-12-29T12:57:31;130.15;;;89.03;;
58196;SDS011;43999;51.660;5.616;2023-12-29T13:00:35;137.38;;;92.97;;
58196;SDS011;43999;51.660;5.616;2023-12-29T13:03:26;134.48;;;91.30;;
58196;SDS011;43999;51.660;5.616;2023-12-29T13:06:23;136.38;;;91.90;;
58196;SDS011;43999;51.660;5.616;2023-12-29T13:09:43;145.35;;;96.05;;
58196;SDS011;43999;51.660;5.616;2023-12-29T13:12:58;142.18;;;94.55;;
58196;SDS011;43999;51.660;5.616;2023-12-29T13:15:51;140.57;;;93.88;;
58196;SDS011;43999;51.660;5.616;2023-12-29T13:18:41;143.23;;;95.43;;
58196;SDS011;43999;51.660;5.616;2023-12-29T13:21:45;145.05;;;94.32;;
58196;SDS011;43999;51.660;5.616;2023-12-29T13:24:45;149.32;;;96.53;;
58196;SDS011;43999;51.660;5.616;2023-12-29T13:27:36;145.27;;;95.45;;
58196;SDS011;43999;51.660;5.616;2023-12-29T13:30:26;149.35;;;99.53;;
58196;SDS011;43999;51.660;5.616;2023-12-29T13:36:50;152.82;;;96.72;;
58196;SDS011;43999;51.660;5.616;2023-12-29T13:40:00;157.65;;;101.07;;
58196;SDS011;43999;51.660;5.616;2023-12-29T13:42:57;158.40;;;100.10;;
58196;SDS011;43999;51.660;5.616;2023-12-29T13:45:58;153.65;;;99.57;;
58196;SDS011;43999;51.660;5.616;2023-12-29T13:48:55;159.85;;;101.22;;
58196;SDS011;43999;51.660;5.616;2023-12-29T13:51:50;164.90;;;103.13;;
58196;SDS011;43999;51.660;5.616;2023-12-29T13:55:06;169.15;;;104.60;;
58196;SDS011;43999;51.660;5.616;2023-12-29T13:58:17;178.93;;;108.05;;
58196;SDS011;43999;51.660;5.616;2023-12-29T14:01:07;177.73;;;108.50;;
58196;SDS011;43999;51.660;5.616;2023-12-29T14:04:19;189.38;;;112.05;;
58196;SDS011;43999;51.660;5.616;2023-12-29T14:07:27;188.95;;;110.30;;
58196;SDS011;43999;51.660;5.616;2023-12-29T14:10:35;189.57;;;112.40;;
58196;SDS011;43999;51.660;5.616;2023-12-29T14:13:59;193.48;;;115.30;;
58196;SDS011;43999;51.660;5.616;2023-12-29T14:16:51;192.45;;;114.70;;
58196;SDS011;43999;51.660;5.616;2023-12-29T14:19:41;195.25;;;114.65;;
58196;SDS011;43999;51.660;5.616;2023-12-29T14:22:30;193.85;;;112.45;;
58196;SDS011;43999;51.660;5.616;2023-12-29T14:25:24;180.77;;;110.47;;
58196;SDS011;43999;51.660;5.616;2023-12-29T14:28:17;175.90;;;108.25;;
58196;SDS011;43999;51.660;5.616;2023-12-29T14:31:27;182.98;;;109.25;;
58196;SDS011;43999;51.660;5.616;2023-12-29T14:34:40;170.35;;;105.97;;
58196;SDS011;43999;51.660;5.616;2023-12-29T14:37:30;160.40;;;102.22;;
58196;SDS011;43999;51.660;5.616;2023-12-29T14:40:36;166.38;;;102.53;;
58196;SDS011;43999;51.660;5.616;2023-12-29T14:43:31;159.57;;;101.60;;
58196;SDS011;43999;51.660;5.616;2023-12-29T14:46:28;161.50;;;100.00;;
58196;SDS011;43999;51.660;5.616;2023-12-29T14:49:20;160.75;;;100.90;;
58196;SDS011;43999;51.660;5.616;2023-12-29T14:52:09;163.52;;;101.03;;
58196;SDS011;43999;51.660;5.616;2023-12-29T14:55:15;159.90;;;100.15;;
58196;SDS011;43999;51.660;5.616;2023-12-29T14:58:39;158.57;;;99.95;;
58196;SDS011;43999;51.660;5.616;2023-12-29T15:01:34;165.30;;;101.85;;
58196;SDS011;43999;51.660;5.616;2023-12-29T15:04:23;159.25;;;99.30;;
58196;SDS011;43999;51.660;5.616;2023-12-29T15:07:19;161.82;;;101.78;;
58196;SDS011;43999;51.660;5.616;2023-12-29T15:10:26;171.68;;;100.88;;
58196;SDS011;43999;51.660;5.616;2023-12-29T15:13:18;157.65;;;99.38;;
58196;SDS011;43999;51.660;5.616;2023-12-29T15:16:25;165.32;;;100.65;;
58196;SDS011;43999;51.660;5.616;2023-12-29T15:19:31;167.02;;;103.97;;
58196;SDS011;43999;51.660;5.616;2023-12-29T15:22:19;161.25;;;100.07;;
58196;SDS011;43999;51.660;5.616;2023-12-29T15:25:15;170.65;;;104.10;;
58196;SDS011;43999;51.660;5.616;2023-12-29T15:28:07;174.75;;;104.43;;
58196;SDS011;43999;51.660;5.616;2023-12-29T15:31:04;181.25;;;105.85;;
58196;SDS011;43999;51.660;5.616;2023-12-29T15:33:56;182.70;;;105.78;;
58196;SDS011;43999;51.660;5.616;2023-12-29T15:36:44;178.70;;;104.55;;
58196;SDS011;43999;51.660;5.616;2023-12-29T15:39:32;191.38;;;110.05;;
58196;SDS011;43999;51.660;5.616;2023-12-29T15:42:30;190.50;;;108.47;;
58196;SDS011;43999;51.660;5.616;2023-12-29T15:45:19;194.35;;;110.10;;
58196;SDS011;43999;51.660;5.616;2023-12-29T15:48:16;198.82;;;110.75;;
58196;SDS011;43999;51.660;5.616;2023-12-29T15:51:07;183.30;;;107.80;;
58196;SDS011;43999;51.660;5.616;2023-12-29T15:54:00;187.27;;;109.97;;
58196;SDS011;43999;51.660;5.616;2023-12-29T15:56:49;198.13;;;112.70;;
58196;SDS011;43999;51.660;5.616;2023-12-29T15:59:45;198.00;;;112.47;;
58196;SDS011;43999;51.660;5.616;2023-12-29T16:02:38;191.35;;;109.28;;
58196;SDS011;43999;51.660;5.616;2023-12-29T16:05:36;192.95;;;111.43;;
58196;SDS011;43999;51.660;5.616;2023-12-29T16:08:27;195.98;;;109.22;;
58196;SDS011;43999;51.660;5.616;2023-12-29T16:11:22;204.68;;;113.82;;
58196;SDS011;43999;51.660;5.616;2023-12-29T16:14:17;220.63;;;119.00;;
58196;SDS011;43999;51.660;5.616;2023-12-29T16:17:17;222.07;;;118.28;;
58196;SDS011;43999;51.660;5.616;2023-12-29T16:20:09;222.45;;;121.55;;
58196;SDS011;43999;51.660;5.616;2023-12-29T16:23:13;230.85;;;123.00;;
58196;SDS011;43999;51.660;5.616;2023-12-29T16:26:15;222.38;;;120.13;;
58196;SDS011;43999;51.660;5.616;2023-12-29T16:29:14;221.95;;;121.07;;
58196;SDS011;43999;51.660;5.616;2023-12-29T16:32:07;223.90;;;121.40;;
58196;SDS011;43999;51.660;5.616;2023-12-29T16:35:02;227.63;;;123.85;;
58196;SDS011;43999;51.660;5.616;2023-12-29T16:38:13;226.30;;;122.35;;
58196;SDS011;43999;51.660;5.616;2023-12-29T16:41:28;225.57;;;120.57;;
58196;SDS011;43999;51.660;5.616;2023-12-29T16:44:20;212.98;;;116.70;;
58196;SDS011;43999;51.660;5.616;2023-12-29T16:47:11;191.90;;;113.07;;
58196;SDS011;43999;51.660;5.616;2023-12-29T16:50:22;197.88;;;114.10;;
58196;SDS011;43999;51.660;5.616;2023-12-29T16:53:19;192.18;;;111.00;;
58196;SDS011;43999;51.660;5.616;2023-12-29T16:56:14;191.90;;;109.68;;
58196;SDS011;43999;51.660;5.616;2023-12-29T16:59:06;157.75;;;99.25;;
58196;SDS011;43999;51.660;5.616;2023-12-29T17:01:55;163.57;;;103.40;;
58196;SDS011;43999;51.660;5.616;2023-12-29T17:04:45;164.20;;;102.40;;
58196;SDS011;43999;51.660;5.616;2023-12-29T17:07:40;165.25;;;103.90;;
58196;SDS011;43999;51.660;5.616;2023-12-29T17:10:42;175.07;;;106.10;;
58196;SDS011;43999;51.660;5.616;2023-12-29T17:13:34;165.63;;;102.50;;